Time;durP1;ratioP1;P1;durP2;ratioP2;P2;SDS_P1;SDS_P2;PMS_P1;PMS_P2;Temp;Humidity;BMP_temperature;BMP_pressure;BME280_temperature;BME280_humidity;BME280_pressure;Samples;Min_cycle;Max_cycle;Signal;HPM_P1;HPM_P2
2023/08/12 00:00:57;;;;;;;;;;;;;;;24.68;100.00;100219.09;5053738;28;19921;-71
2023/08/12 00:03:22;;;;;;;;;;;;;;;24.68;100.00;100205.59;5053306;28;19940;-72
2023/08/12 00:05:48;;;;;;;;;;;;;;;24.70;100.00;100208.09;5045015;28;19966;-72
2023/08/12 00:08:13;;;;;;;;;;;;;;;24.73;100.00;100213.91;5053837;28;19920;-72
2023/08/12 00:10:38;;;;;;;;;;;;;;;24.75;100.00;100211.78;5035264;28;20397;-71
2023/08/12 00:13:03;;;;;;;;;;;;;;;24.76;100.00;100220.72;5053571;28;19925;-72
2023/08/12 00:15:29;;;;;;;;;;;;;;;24.71;100.00;100215.97;5052458;28;19929;-71
2023/08/12 00:17:54;;;;;;;;;;;;;;;24.64;100.00;100217.88;5035682;28;19925;-71
2023/08/12 00:20:19;;;;;;;;;;;;;;;24.63;100.00;100208.13;5053173;28;20309;-71
2023/08/12 00:22:45;;;;;;;;;;;;;;;24.61;100.00;100209.41;5052833;28;19956;-72
2023/08/12 00:25:10;;;;;;;;;;;;;;;24.63;100.00;100213.53;5053319;28;20270;-71
2023/08/12 00:27:37;;;;;;;;;;;;;;;24.62;100.00;100220.00;5052918;28;19925;-71
2023/08/12 00:30:03;;;;;;;;;;;;;;;24.48;100.00;100215.72;5053388;28;19978;-72
2023/08/12 00:32:28;;;;;;;;;;;;;;;24.36;100.00;100214.75;5053197;28;19920;-72
2023/08/12 00:34:53;;;;;;;;;;;;;;;24.13;100.00;100223.34;5053109;28;19928;-71
2023/08/12 00:37:18;;;;;;;;;;;;;;;23.93;100.00;100214.50;5052735;28;20399;-72
2023/08/12 00:39:44;;;;;;;;;;;;;;;23.85;100.00;100215.59;5052638;28;19997;-72
2023/08/12 00:42:09;;;;;;;;;;;;;;;23.85;100.00;100223.69;5053082;28;19921;-72
2023/08/12 00:44:35;;;;;;;;;;;;;;;23.90;100.00;100223.88;5053139;28;20104;-72
2023/08/12 00:47:01;;;;;;;;;;;;;;;23.91;100.00;100220.13;5052853;28;19920;-72
2023/08/12 00:49:26;;;;;;;;;;;;;;;23.73;100.00;100211.91;5034455;28;20328;-72
2023/08/12 00:51:52;;;;;;;;;;;;;;;23.76;100.00;100216.84;5052961;28;19952;-72
2023/08/12 00:54:18;;;;;;;;;;;;;;;23.76;100.00;100216.03;5052373;28;19928;-72
2023/08/12 00:56:44;;;;;;;;;;;;;;;23.79;100.00;100211.06;5052818;28;20330;-72
2023/08/12 00:59:10;;;;;;;;;;;;;;;23.81;100.00;100206.25;5029770;28;20015;-72
2023/08/12 01:01:38;;;;;;;;;;;;;;;23.70;100.00;100211.47;5050342;28;20030;-72
2023/08/12 01:04:04;;;;;;;;;;;;;;;23.78;100.00;100209.38;5049769;28;19972;-71
2023/08/12 01:06:29;;;;;;;;;;;;;;;23.79;100.00;100210.22;5034656;28;20384;-72
2023/08/12 01:08:54;;;;;;;;;;;;;;;23.82;100.00;100207.91;5053026;28;19929;-72
2023/08/12 01:11:19;;;;;;;;;;;;;;;23.88;100.00;100208.94;5034900;28;19943;-72
2023/08/12 01:14:01;;;;;;;;;;;;;;;23.87;100.00;100208.09;5042793;28;19920;-71
2023/08/12 01:16:29;;;;;;;;;;;;;;;23.89;100.00;100214.13;5049169;28;19925;-72
2023/08/12 01:18:55;;;;;;;;;;;;;;;23.87;100.00;100208.09;5034784;28;19925;-72
2023/08/12 01:21:21;;;;;;;;;;;;;;;23.86;100.00;100201.06;5051258;28;19986;-72
2023/08/12 01:23:47;;;;;;;;;;;;;;;23.90;100.00;100210.38;5043062;28;19928;-71
2023/08/12 01:26:12;;;;;;;;;;;;;;;23.90;100.00;100210.38;5048815;28;19920;-72
2023/08/12 01:28:37;;;;;;;;;;;;;;;23.87;100.00;100205.41;5052226;28;19925;-72
2023/08/12 01:31:12;;;;;;;;;;;;;;;23.85;100.00;100210.19;5052633;28;19974;-72
2023/08/12 01:33:58;;;;;;;;;;;;;;;23.85;100.00;100204.81;5042675;28;19983;-71
2023/08/12 01:36:26;;;;;;;;;;;;;;;23.84;100.00;100211.25;5031454;28;19925;-72
2023/08/12 01:38:55;;;;;;;;;;;;;;;23.75;100.00;100217.88;5034071;28;19928;-72
2023/08/12 01:41:22;;;;;;;;;;;;;;;23.79;100.00;100215.59;5033466;28;19939;-72
2023/08/12 01:43:48;;;;;;;;;;;;;;;23.79;100.00;100211.06;5052129;28;19921;-71
2023/08/12 01:46:15;;;;;;;;;;;;;;;23.76;100.00;100216.03;5042346;28;19925;-71
2023/08/12 01:48:40;;;;;;;;;;;;;;;23.69;100.00;100210.66;5051838;28;20262;-72
2023/08/12 01:51:05;;;;;;;;;;;;;;;23.71;100.00;100203.19;5051931;28;19925;-72
2023/08/12 01:53:31;;;;;;;;;;;;;;;23.73;100.00;100206.50;5051258;28;19920;-71
2023/08/12 01:55:56;;;;;;;;;;;;;;;23.73;100.00;100206.50;5051679;28;20030;-73
2023/08/12 01:58:21;;;;;;;;;;;;;;;23.76;100.00;100195.28;5033348;28;19925;-71
2023/08/12 02:00:46;;;;;;;;;;;;;;;23.81;100.00;100191.94;5040207;28;19975;-71
2023/08/12 02:03:12;;;;;;;;;;;;;;;23.80;100.00;100193.81;5051011;28;19921;-70
2023/08/12 02:05:37;;;;;;;;;;;;;;;23.83;100.00;100190.72;5051003;28;19971;-72
2023/08/12 02:08:03;;;;;;;;;;;;;;;23.88;100.00;100201.66;5051575;28;19924;-71
2023/08/12 02:10:29;;;;;;;;;;;;;;;23.87;100.00;100197.31;5049880;28;20388;-72
2023/08/12 02:12:54;;;;;;;;;;;;;;;23.83;100.00;100201.50;5051073;28;20019;-72
2023/08/12 02:15:20;;;;;;;;;;;;;;;23.73;100.00;100205.69;5049837;28;19932;-73
2023/08/12 02:17:45;;;;;;;;;;;;;;;23.78;100.00;100204.00;5051364;28;20012;-71
2023/08/12 02:20:11;;;;;;;;;;;;;;;23.68;100.00;100200.91;5051211;28;19921;-72
2023/08/12 02:22:36;;;;;;;;;;;;;;;23.65;100.00;100204.03;5050793;28;20024;-72
2023/08/12 02:25:01;;;;;;;;;;;;;;;23.58;100.00;100198.66;5033329;28;20293;-72
2023/08/12 02:27:26;;;;;;;;;;;;;;;23.36;100.00;100207.19;5050579;28;19932;-72
2023/08/12 02:29:52;;;;;;;;;;;;;;;23.34;100.00;100206.56;5051233;28;19936;-72
2023/08/12 02:32:17;;;;;;;;;;;;;;;23.34;100.00;100206.56;5050932;28;19961;-72
2023/08/12 02:34:42;;;;;;;;;;;;;;;23.36;100.00;100209.88;5041966;28;19925;-72
2023/08/12 02:37:09;;;;;;;;;;;;;;;23.38;100.00;100207.81;5033205;28;19921;-73
2023/08/12 02:39:34;;;;;;;;;;;;;;;23.43;100.00;100216.09;5050359;28;19924;-72
2023/08/12 02:42:00;;;;;;;;;;;;;;;23.43;100.00;100206.13;5033084;28;19921;-73
2023/08/12 02:44:26;;;;;;;;;;;;;;;23.44;100.00;100215.06;5050552;28;19921;-72
2023/08/12 02:46:51;;;;;;;;;;;;;;;23.42;100.00;100214.41;5050773;28;19983;-72
2023/08/12 02:49:17;;;;;;;;;;;;;;;23.40;100.00;100211.94;5041229;28;19920;-73
2023/08/12 02:51:42;;;;;;;;;;;;;;;23.41;100.00;100207.38;5050900;28;19963;-71
2023/08/12 02:54:08;;;;;;;;;;;;;;;23.38;100.00;100207.81;5051027;28;20020;-73
2023/08/12 02:56:34;;;;;;;;;;;;;;;23.25;100.00;100214.88;5032818;28;19921;-72
2023/08/12 02:58:59;;;;;;;;;;;;;;;23.16;100.00;100204.50;5029965;28;19920;-73
2023/08/12 03:01:24;;;;;;;;;;;;;;;23.21;100.00;100212.78;5050079;28;19925;-72
2023/08/12 03:03:50;;;;;;;;;;;;;;;23.26;100.00;100208.44;5033060;28;19956;-73
2023/08/12 03:06:15;;;;;;;;;;;;;;;23.26;100.00;100200.38;5032888;28;19920;-71
2023/08/12 03:08:41;;;;;;;;;;;;;;;23.31;100.00;100201.59;5027450;28;20388;-71
2023/08/12 03:11:07;;;;;;;;;;;;;;;23.32;100.00;100197.88;5029717;28;19998;-72
2023/08/12 03:13:32;;;;;;;;;;;;;;;23.28;100.00;100198.28;5032683;28;20327;-71
2023/08/12 03:15:58;;;;;;;;;;;;;;;23.20;100.00;100201.22;5032544;28;19921;-71
2023/08/12 03:18:24;;;;;;;;;;;;;;;23.22;100.00;100206.34;5049241;28;19928;-72
2023/08/12 03:20:50;;;;;;;;;;;;;;;23.22;100.00;100204.50;5040176;28;20377;-72
2023/08/12 03:23:15;;;;;;;;;;;;;;;23.27;100.00;100204.69;5049574;28;20292;-72
2023/08/12 03:25:42;;;;;;;;;;;;;;;23.27;100.00;100202.00;5040419;28;19927;-70
2023/08/12 03:28:08;;;;;;;;;;;;;;;23.26;100.00;100194.97;5032594;28;19924;-72
2023/08/12 03:30:33;;;;;;;;;;;;;;;23.28;100.00;100198.28;5050058;28;19921;-72
2023/08/12 03:32:58;;;;;;;;;;;;;;;23.32;100.00;100200.56;5029574;28;19970;-72
2023/08/12 03:35:27;;;;;;;;;;;;;;;23.36;100.00;100207.19;5032102;28;19987;-72
2023/08/12 03:37:53;;;;;;;;;;;;;;;23.35;100.00;100208.22;5050530;28;20353;-72
2023/08/12 03:40:19;;;;;;;;;;;;;;;23.28;100.00;100209.03;5036678;28;19922;-72
2023/08/12 03:42:45;;;;;;;;;;;;;;;23.26;100.00;100203.06;5049101;28;20011;-72
2023/08/12 03:45:10;;;;;;;;;;;;;;;23.22;100.00;100201.81;5032215;28;20004;-71
2023/08/12 03:47:36;;;;;;;;;;;;;;;23.13;100.00;100199.56;5048476;28;19931;-72
2023/08/12 03:50:01;;;;;;;;;;;;;;;23.04;100.00;100201.59;5032737;28;19975;-71
2023/08/12 03:52:26;;;;;;;;;;;;;;;23.01;100.00;100199.34;5053683;28;19920;-72
2023/08/12 03:54:53;;;;;;;;;;;;;;;22.95;100.00;100197.50;5053945;28;20338;-72
2023/08/12 03:57:19;;;;;;;;;;;;;;;22.97;100.00;100205.38;5031513;28;19921;-73
2023/08/12 03:59:45;;;;;;;;;;;;;;;22.93;100.00;100204.94;5045875;28;20284;-72
2023/08/12 04:02:10;;;;;;;;;;;;;;;22.88;100.00;100207.41;5045355;28;19927;-73
2023/08/12 04:04:35;;;;;;;;;;;;;;;22.86;100.00;100209.47;5052916;28;20016;-72
2023/08/12 04:07:01;;;;;;;;;;;;;;;22.84;100.00;100200.81;5035848;28;19925;-72
2023/08/12 04:09:26;;;;;;;;;;;;;;;22.85;100.00;100203.25;5053051;28;19927;-74
2023/08/12 04:11:52;;;;;;;;;;;;;;;22.86;100.00;100198.72;5053714;28;20019;-72
2023/08/12 04:14:17;;;;;;;;;;;;;;;22.95;100.00;100210.94;5053597;28;19962;-72
2023/08/12 04:16:42;;;;;;;;;;;;;;;22.99;100.00;100209.47;5038380;28;19925;-72
2023/08/12 04:19:07;;;;;;;;;;;;;;;22.99;100.00;100203.28;5053099;28;20297;-71
2023/08/12 04:21:33;;;;;;;;;;;;;;;23.01;100.00;100199.34;5035270;28;19974;-70
2023/08/12 04:23:59;;;;;;;;;;;;;;;23.08;100.00;100194.78;5043459;28;19967;-72
2023/08/12 04:26:24;;;;;;;;;;;;;;;23.08;100.00;100197.50;5053247;28;20021;-72
2023/08/12 04:28:51;;;;;;;;;;;;;;;23.10;100.00;100199.94;5035435;28;19975;-72
2023/08/12 04:31:16;;;;;;;;;;;;;;;23.09;100.00;100207.19;5051900;28;19928;-71
2023/08/12 04:33:42;;;;;;;;;;;;;;;23.07;100.00;100205.75;5043325;28;19920;-71
2023/08/12 04:36:08;;;;;;;;;;;;;;;23.09;100.00;100212.56;5034995;28;19974;-72
2023/08/12 04:38:33;;;;;;;;;;;;;;;23.08;100.00;100219.03;5043368;28;19928;-71
2023/08/12 04:41:01;;;;;;;;;;;;;;;23.03;100.00;100216.09;5035093;28;20007;-72
2023/08/12 04:43:27;;;;;;;;;;;;;;;23.02;100.00;100209.09;5043278;28;19928;-73
2023/08/12 04:45:52;;;;;;;;;;;;;;;23.02;100.00;100209.09;5035343;28;20400;-73
2023/08/12 04:48:19;;;;;;;;;;;;;;;23.01;100.00;100210.13;5034771;28;19920;-72
2023/08/12 04:50:44;;;;;;;;;;;;;;;22.92;100.00;100216.72;5034696;28;19993;-72
2023/08/12 04:53:09;;;;;;;;;;;;;;;22.90;100.00;100213.44;5043220;28;19928;-72
2023/08/12 04:55:35;;;;;;;;;;;;;;;22.81;100.00;100220.03;5052581;28;19932;-72
2023/08/12 04:58:01;;;;;;;;;;;;;;;22.35;100.00;100218.06;5031112;28;20004;-73
2023/08/12 05:00:27;;;;;;;;;;;;;;;22.29;100.00;100218.03;5051011;28;20011;-73
2023/08/12 05:02:53;;;;;;;;;;;;;;;22.22;100.00;100220.72;5043031;28;20285;-73
2023/08/12 05:05:19;;;;;;;;;;;;;;;22.25;100.00;100209.56;5045148;28;19921;-72
2023/08/12 05:07:48;;;;;;;;;;;;;;;22.34;100.00;100221.78;5045219;28;19925;-73
2023/08/12 05:10:17;;;;;;;;;;;;;;;22.44;100.00;100227.59;5026499;28;19930;-72
2023/08/12 05:12:43;;;;;;;;;;;;;;;22.54;100.00;100221.00;5030288;28;19921;-72
2023/08/12 05:15:08;;;;;;;;;;;;;;;22.61;100.00;100217.31;5042588;28;19935;-73
2023/08/12 05:17:34;;;;;;;;;;;;;;;22.64;100.00;100216.06;5052184;28;20359;-72
2023/08/12 05:19:59;;;;;;;;;;;;;;;22.67;100.00;100215.66;5034354;28;19921;-73
2023/08/12 05:22:25;;;;;;;;;;;;;;;22.68;100.00;100218.13;5042579;28;19922;-72
2023/08/12 05:24:50;;;;;;;;;;;;;;;22.73;100.00;100225.63;5052218;28;20016;-72
2023/08/12 05:27:15;;;;;;;;;;;;;;;22.73;100.00;100225.63;5052248;28;19920;-71
2023/08/12 05:29:41;;;;;;;;;;;;;;;22.75;100.00;100219.00;5051900;28;19927;-71
2023/08/12 05:32:06;;;;;;;;;;;;;;;22.79;100.00;100219.44;5051837;28;19920;-71
2023/08/12 05:34:32;;;;;;;;;;;;;;;22.87;100.00;100216.53;5051587;28;19928;-73
2023/08/12 05:36:57;;;;;;;;;;;;;;;22.89;100.00;100227.91;5051976;28;20321;-72
2023/08/12 05:39:22;;;;;;;;;;;;;;;22.96;100.00;100226.06;5041971;28;19921;-72
2023/08/12 05:41:47;;;;;;;;;;;;;;;22.98;100.00;100229.34;5051828;28;19920;-71
2023/08/12 05:44:13;;;;;;;;;;;;;;;22.99;100.00;100228.31;5047881;28;19978;-71
2023/08/12 05:46:38;;;;;;;;;;;;;;;23.07;100.00;100224.59;5051390;28;19931;-73
2023/08/12 05:49:04;;;;;;;;;;;;;;;23.15;100.00;100230.59;5051868;28;20122;-73
2023/08/12 05:51:29;;;;;;;;;;;;;;;23.21;100.00;100224.38;5051102;28;20381;-72
2023/08/12 05:53:54;;;;;;;;;;;;;;;23.26;100.00;100230.00;5051832;28;19952;-72
2023/08/12 05:56:19;;;;;;;;;;;;;;;23.31;100.00;100229.34;5033631;28;19921;-72
2023/08/12 05:58:45;;;;;;;;;;;;;;;23.38;100.00;100226.66;5051837;28;19920;-72
2023/08/12 06:01:10;;;;;;;;;;;;;;;23.42;100.00;100230.56;5038035;28;19971;-72
2023/08/12 06:03:35;;;;;;;;;;;;;;;23.48;100.00;100227.09;5051737;28;19920;-73
2023/08/12 06:06:01;;;;;;;;;;;;;;;23.51;100.00;100232.03;5051326;28;20369;-73
2023/08/12 06:08:26;;;;;;;;;;;;;;;23.51;100.00;100232.03;5051292;28;20278;-72
2023/08/12 06:10:51;;;;;;;;;;;;;;;23.50;100.00;100235.78;5051375;28;19928;-72
2023/08/12 06:13:16;;;;;;;;;;;;;;;23.57;100.00;100239.28;5051089;28;19925;-72
2023/08/12 06:15:42;;;;;;;;;;;;;;;23.62;100.00;100232.22;5051035;28;20069;-69
2023/08/12 06:18:07;;;;;;;;;;;;;;;23.68;100.00;100233.25;5051452;28;19935;-72
2023/08/12 06:20:32;;;;;;;;;;;;;;;23.70;100.00;100228.47;5050810;28;19928;-71
2023/08/12 06:22:58;;;;;;;;;;;;;;;23.77;100.00;100231.97;5037516;28;19925;-74
2023/08/12 06:25:23;;;;;;;;;;;;;;;23.81;100.00;100235.91;5050935;28;19921;-72
2023/08/12 06:27:48;;;;;;;;;;;;;;;23.88;100.00;100231.31;5051523;28;19968;-71
2023/08/12 06:30:14;;;;;;;;;;;;;;;23.93;100.00;100228.81;5051094;28;19924;-71
2023/08/12 06:32:39;;;;;;;;;;;;;;;23.98;100.00;100226.28;5050972;28;19929;-70
2023/08/12 06:35:05;;;;;;;;;;;;;;;24.04;100.00;100220.06;5050661;28;19925;-72
2023/08/12 06:37:30;;;;;;;;;;;;;;;24.11;100.00;100235.38;5038533;28;20408;-73
2023/08/12 06:39:55;;;;;;;;;;;;;;;23.78;100.00;100228.25;5051036;28;19975;-70
2023/08/12 06:42:21;;;;;;;;;;;;;;;23.96;100.00;100228.41;5050913;28;20301;-71
2023/08/12 06:44:55;;;;;;;;;;;;;;;24.05;100.00;100226.28;5041273;28;20003;-71
2023/08/12 06:47:20;;;;;;;;;;;;;;;24.09;100.00;100228.31;5050577;28;19956;-71
2023/08/12 06:49:46;;;;;;;;;;;;;;;24.20;100.00;100223.34;5050529;28;20026;-71
2023/08/12 06:52:11;;;;;;;;;;;;;;;24.21;100.00;100230.41;5051309;28;19920;-72
2023/08/12 06:54:37;;;;;;;;;;;;;;;24.29;100.00;100233.66;5050514;28;19951;-70
2023/08/12 06:57:02;;;;;;;;;;;;;;;24.35;100.00;100231.97;5051036;28;19924;-72
2023/08/12 06:59:27;;;;;;;;;;;;;;;24.42;100.00;100224.69;5050578;28;19920;-72
2023/08/12 07:01:53;;;;;;;;;;;;;;;24.48;100.00;100223.81;5032984;28;20341;-71
2023/08/12 07:04:18;;;;;;;;;;;;;;;24.57;100.00;100235.97;5050602;28;19925;-71
2023/08/12 07:06:43;;;;;;;;;;;;;;;24.62;100.00;100222.69;5052715;28;19929;-70
2023/08/12 07:09:08;;;;;;;;;;;;;;;24.61;100.00;100225.59;5051075;28;19924;-71
2023/08/12 07:11:34;;;;;;;;;;;;;;;24.67;100.00;100225.56;5050637;28;20023;-72
2023/08/12 07:13:59;;;;;;;;;;;;;;;24.74;100.00;100226.31;5050763;28;20366;-71
2023/08/12 07:16:24;;;;;;;;;;;;;;;24.78;100.00;100227.56;5050382;28;19924;-72
2023/08/12 07:18:50;;;;;;;;;;;;;;;24.81;100.00;100227.09;5050879;28;19921;-72
2023/08/12 07:21:15;;;;;;;;;;;;;;;24.87;100.00;100228.94;5050582;28;19921;-73
2023/08/12 07:23:40;;;;;;;;;;;;;;;24.93;100.00;100223.72;5032687;28;20383;-71
2023/08/12 07:26:06;;;;;;;;;;;;;;;24.92;100.00;100232.91;5054581;28;20023;-71
2023/08/12 07:28:31;;;;;;;;;;;;;;;24.91;100.00;100223.97;5035461;28;19966;-72
2023/08/12 07:30:57;;;;;;;;;;;;;;;24.96;100.00;100229.53;5054245;28;19968;-72
2023/08/12 07:33:22;;;;;;;;;;;;;;;25.03;100.00;100218.69;5054188;28;19936;-71
2023/08/12 07:35:47;;;;;;;;;;;;;;;25.06;100.00;100218.22;5054109;28;20354;-72
2023/08/12 07:38:13;;;;;;;;;;;;;;;25.08;100.00;100221.53;5050148;28;19990;-72
2023/08/12 07:40:38;;;;;;;;;;;;;;;25.13;100.00;100216.31;5053617;28;19998;-73
2023/08/12 07:43:04;;;;;;;;;;;;;;;25.21;100.00;100221.44;5054336;28;19975;-70
2023/08/12 07:45:29;;;;;;;;;;;;;;;25.27;100.00;100215.94;5053648;28;20404;-72
2023/08/12 07:47:54;;;;;;;;;;;;;;;25.34;100.00;100210.47;5054163;28;19956;-72
2023/08/12 07:50:19;;;;;;;;;;;;;;;25.40;100.00;100209.59;5053512;28;20003;-72
2023/08/12 07:52:45;;;;;;;;;;;;;;;25.48;100.00;100212.00;5053982;28;19920;-72
2023/08/12 07:55:10;;;;;;;;;;;;;;;25.53;100.00;100206.75;5054014;28;20372;-72
2023/08/12 07:57:35;;;;;;;;;;;;;;;25.57;100.00;100205.28;5052612;28;19920;-72
2023/08/12 08:00:01;;;;;;;;;;;;;;;25.62;100.00;100208.13;5053658;28;19920;-73
2023/08/12 08:02:26;;;;;;;;;;;;;;;25.69;100.00;100211.59;5053809;28;19944;-73
2023/08/12 08:04:51;;;;;;;;;;;;;;;25.74;100.00;100204.72;5053456;28;19921;-73
2023/08/12 08:07:17;;;;;;;;;;;;;;;25.76;100.00;100208.81;5053831;28;19928;-71
2023/08/12 08:09:42;;;;;;;;;;;;;;;25.78;100.00;100203.19;5053252;28;19951;-72
2023/08/12 08:12:09;;;;;;;;;;;;;;;25.78;100.00;100200.50;5053724;28;20039;-73
2023/08/12 08:14:34;;;;;;;;;;;;;;;25.85;100.00;100195.84;5052158;28;19925;-72
2023/08/12 08:16:59;;;;;;;;;;;;;;;25.89;100.00;100202.44;5053675;28;19921;-73
2023/08/12 08:19:24;;;;;;;;;;;;;;;25.96;100.00;100203.19;5053282;28;20344;-74
2023/08/12 08:21:50;;;;;;;;;;;;;;;26.02;100.00;100196.88;5053313;28;19921;-72
2023/08/12 08:24:15;;;;;;;;;;;;;;;26.08;100.00;100191.38;5053440;28;19956;-71
2023/08/12 08:26:40;;;;;;;;;;;;;;;26.14;100.00;100192.34;5053275;28;19921;-72
2023/08/12 08:29:06;;;;;;;;;;;;;;;26.11;100.00;100195.47;5053362;28;20366;-71
2023/08/12 08:31:31;;;;;;;;;;;;;;;26.16;100.00;100190.22;5053113;28;19928;-72
2023/08/12 08:33:57;;;;;;;;;;;;;;;26.18;100.00;100180.00;5053395;28;19924;-72
2023/08/12 08:36:22;;;;;;;;;;;;;;;26.22;100.00;100189.28;5052136;28;19920;-72
2023/08/12 08:38:48;;;;;;;;;;;;;;;26.25;100.00;100190.75;5053324;28;19921;-72
2023/08/12 08:41:15;;;;;;;;;;;;;;;26.27;100.00;100188.66;5049061;28;19921;-72
2023/08/12 08:43:43;;;;;;;;;;;;;;;26.33;100.00;100185.84;5052631;28;20305;-72
2023/08/12 08:46:09;;;;;;;;;;;;;;;26.38;100.00;100183.28;5052970;28;19936;-72
2023/08/12 08:48:35;;;;;;;;;;;;;;;26.43;100.00;100188.00;5052786;28;19925;-72
2023/08/12 08:51:00;;;;;;;;;;;;;;;26.48;100.00;100180.00;5052920;28;19928;-73
2023/08/12 08:53:26;;;;;;;;;;;;;;;26.52;100.00;100180.38;5052536;28;19928;-72
2023/08/12 08:55:52;;;;;;;;;;;;;;;26.57;100.00;100177.81;5035276;28;20389;-72
2023/08/12 08:58:18;;;;;;;;;;;;;;;26.63;100.00;100177.69;5052598;28;19967;-72
2023/08/12 09:00:43;;;;;;;;;;;;;;;26.68;100.00;100175.13;5048407;28;19928;-72
2023/08/12 09:03:09;;;;;;;;;;;;;;;26.74;100.00;100179.59;5052593;28;20423;-72
2023/08/12 09:05:35;;;;;;;;;;;;;;;26.81;100.00;100179.47;5052183;28;20029;-72
2023/08/12 09:08:01;;;;;;;;;;;;;;;26.86;100.00;100176.94;5055833;28;19920;-72
2023/08/12 09:10:26;;;;;;;;;;;;;;;26.95;100.00;100180.13;5052384;28;19921;-70
2023/08/12 09:12:52;;;;;;;;;;;;;;;26.97;100.00;100176.13;5052713;28;20289;-70
2023/08/12 09:15:18;;;;;;;;;;;;;;;27.00;100.00;100170.22;5052561;28;20281;-72
2023/08/12 09:17:44;;;;;;;;;;;;;;;27.04;100.00;100171.41;5052564;28;19924;-73
2023/08/12 09:20:11;;;;;;;;;;;;;;;27.08;100.00;100169.91;5052286;28;19920;-70
2023/08/12 09:22:37;;;;;;;;;;;;;;;27.14;100.00;100174.38;5052099;28;20533;-70
2023/08/12 09:25:04;;;;;;;;;;;;;;;27.18;100.00;100174.72;5052505;28;20415;-71
2023/08/12 09:27:33;;;;;;;;;;;;;;;27.24;100.00;100169.19;5051887;28;19920;-72
2023/08/12 09:29:58;;;;;;;;;;;;;;;27.27;100.00;100168.69;5052163;28;19921;-72
2023/08/12 09:32:24;;;;;;;;;;;;;;;27.30;100.00;100162.81;5052134;28;20313;-72
2023/08/12 09:34:51;;;;;;;;;;;;;;;27.34;100.00;100170.44;5052270;28;19921;-73
2023/08/12 09:37:17;;;;;;;;;;;;;;;27.36;100.00;100162.91;5051832;28;19960;-71
2023/08/12 09:39:42;;;;;;;;;;;;;;;27.41;100.00;100163.84;5051862;28;20019;-71
2023/08/12 09:42:08;;;;;;;;;;;;;;;27.40;100.00;100161.38;5051848;28;20031;-71
2023/08/12 09:44:37;;;;;;;;;;;;;;;27.41;100.00;100152.19;5050542;28;20397;-71
2023/08/12 09:47:03;;;;;;;;;;;;;;;27.46;100.00;100150.41;5050352;28;20292;-72
2023/08/12 09:49:28;;;;;;;;;;;;;;;27.50;100.00;100150.78;5051197;28;19924;-72
2023/08/12 09:51:55;;;;;;;;;;;;;;;27.52;100.00;100143.25;5049090;28;20008;-72
2023/08/12 09:54:21;;;;;;;;;;;;;;;27.53;100.00;100139.47;5048596;28;19921;-71
2023/08/12 09:56:47;;;;;;;;;;;;;;;27.57;100.00;100141.47;5051894;28;20446;-71
2023/08/12 09:59:14;;;;;;;;;;;;;;;27.65;100.00;100148.41;5051586;28;19921;-71
2023/08/12 10:01:41;;;;;;;;;;;;;;;27.74;100.00;100141.56;5051357;28;19928;-71
2023/08/12 10:04:12;;;;;;;;;;;;;;;27.78;100.00;100137.28;5051824;28;19924;-70
2023/08/12 10:06:38;;;;;;;;;;;;;;;27.80;100.00;100140.59;5050445;28;19947;-71
2023/08/12 10:09:05;;;;;;;;;;;;;;;27.84;100.00;100136.31;5033549;28;19991;-71
2023/08/12 10:11:30;;;;;;;;;;;;;;;27.86;100.00;100136.91;5049420;28;19974;-72
2023/08/12 10:13:56;;;;;;;;;;;;;;;27.89;100.00;100136.41;5025523;28;19925;-70
2023/08/12 10:16:21;;;;;;;;;;;;;;;27.93;100.00;100131.31;5051405;28;19920;-71
2023/08/12 10:18:47;;;;;;;;;;;;;;;27.97;100.00;100130.63;5051346;28;20020;-71
2023/08/12 10:21:13;;;;;;;;;;;;;;;28.04;100.00;100131.28;5051087;28;20369;-72
2023/08/12 10:23:41;;;;;;;;;;;;;;;28.12;100.00;100132.78;5051084;28;20027;-72
2023/08/12 10:26:07;;;;;;;;;;;;;;;28.16;100.00;100122.31;5050322;28;20289;-71
2023/08/12 10:28:36;;;;;;;;;;;;;;;28.20;100.00;100124.28;5050998;28;19921;-71
2023/08/12 10:31:02;;;;;;;;;;;;;;;28.33;99.55;100113.13;5037122;28;19917;-71
2023/08/12 10:33:27;;;;;;;;;;;;;;;28.39;99.08;100111.31;5051013;28;19920;-72
2023/08/12 10:35:55;;;;;;;;;;;;;;;28.42;99.23;100113.53;5051020;28;19940;-71
2023/08/12 10:38:20;;;;;;;;;;;;;;;28.46;98.53;100117.41;5050693;28;20003;-72
2023/08/12 10:40:50;;;;;;;;;;;;;;;28.48;97.18;100115.25;5051083;28;20476;-73
2023/08/12 10:43:15;;;;;;;;;;;;;;;28.52;96.45;100110.97;5047432;28;19932;-71
2023/08/12 10:45:46;;;;;;;;;;;;;;;28.55;95.94;100115.09;5050684;28;19920;-72
2023/08/12 10:48:23;;;;;;;;;;;;;;;28.58;96.48;100110.00;5051201;28;20285;-72
2023/08/12 10:50:49;;;;;;;;;;;;;;;28.63;95.93;100107.34;5047681;28;19921;-72
2023/08/12 10:53:20;;;;;;;;;;;;;;;28.69;95.66;100106.38;5048535;28;19927;-72
2023/08/12 10:55:48;;;;;;;;;;;;;;;28.73;94.48;100107.56;5047408;28;19967;-72
2023/08/12 10:58:23;;;;;;;;;;;;;;;28.73;94.91;100102.13;5051079;28;20392;-70
2023/08/12 11:00:52;;;;;;;;;;;;;;;28.67;92.88;100103.09;5051247;28;20385;-71
2023/08/12 11:03:18;;;;;;;;;;;;;;;28.73;92.90;100091.28;5053406;28;19927;-72
2023/08/12 11:05:44;;;;;;;;;;;;;;;28.76;93.47;100085.34;5054678;28;19925;-72
2023/08/12 11:08:12;;;;;;;;;;;;;;;28.80;92.98;100086.50;5054850;28;19970;-71
2023/08/12 11:10:38;;;;;;;;;;;;;;;28.84;93.08;100076.78;5054627;28;20297;-71
2023/08/12 11:13:03;;;;;;;;;;;;;;;28.89;92.50;100076.84;5054706;28;19921;-72
2023/08/12 11:15:33;;;;;;;;;;;;;;;28.95;92.96;100066.03;5054381;28;20435;-71
2023/08/12 11:17:59;;;;;;;;;;;;;;;29.02;92.87;100066.69;5054714;28;19924;-71
2023/08/12 11:20:27;;;;;;;;;;;;;;;29.11;92.90;100065.16;5054344;28;19925;-71
2023/08/12 11:22:52;;;;;;;;;;;;;;;29.15;93.03;100060.91;5054466;28;20369;-71
2023/08/12 11:25:18;;;;;;;;;;;;;;;29.23;92.38;100058.53;5054468;28;19921;-74
2023/08/12 11:27:44;;;;;;;;;;;;;;;29.27;92.38;100053.44;5054649;28;19925;-71
2023/08/12 11:30:10;;;;;;;;;;;;;;;29.31;91.86;100057.28;5054550;28;20477;-72
2023/08/12 11:32:37;;;;;;;;;;;;;;;29.38;91.56;100041.66;5054028;28;19928;-72
2023/08/12 11:35:03;;;;;;;;;;;;;;;29.48;89.33;100044.47;5054701;28;19916;-71
2023/08/12 11:37:29;;;;;;;;;;;;;;;29.52;90.03;100039.34;5051931;28;20009;-72
2023/08/12 11:39:54;;;;;;;;;;;;;;;29.51;90.12;100033.06;5054902;28;19987;-72
2023/08/12 11:42:20;;;;;;;;;;;;;;;29.54;89.89;100035.31;5053923;28;20387;-72
2023/08/12 11:44:45;;;;;;;;;;;;;;;29.60;89.28;100025.28;5054321;28;19925;-72
2023/08/12 11:47:10;;;;;;;;;;;;;;;29.66;89.19;100030.53;5054196;28;20502;-72
2023/08/12 11:49:36;;;;;;;;;;;;;;;29.65;88.24;100028.91;5053897;28;20385;-72
2023/08/12 11:52:01;;;;;;;;;;;;;;;29.67;87.99;100026.75;5053922;28;19921;-72
2023/08/12 11:54:27;;;;;;;;;;;;;;;29.76;86.30;100018.09;5053716;28;19925;-71
2023/08/12 11:56:53;;;;;;;;;;;;;;;29.81;85.07;100021.69;5054087;28;19928;-71
2023/08/12 11:59:20;;;;;;;;;;;;;;;29.87;84.87;100022.56;5036080;28;19920;-70
2023/08/12 12:01:48;;;;;;;;;;;;;;;29.89;84.86;100017.69;5040325;28;19917;-71
2023/08/12 12:04:14;;;;;;;;;;;;;;;30.04;84.94;100009.72;5036100;28;19921;-71
2023/08/12 12:06:39;;;;;;;;;;;;;;;30.06;83.01;100011.09;5052627;28;20791;-72
2023/08/12 12:09:06;;;;;;;;;;;;;;;30.17;83.00;100009.25;5053758;28;20369;-72
2023/08/12 12:11:34;;;;;;;;;;;;;;;30.35;83.28;99989.81;5050637;28;19948;-71
2023/08/12 12:14:01;;;;;;;;;;;;;;;30.59;81.17;99995.72;5053777;28;20023;-71
2023/08/12 12:16:36;;;;;;;;;;;;;;;30.76;79.73;99992.81;5041701;28;20301;-71
2023/08/12 12:19:02;;;;;;;;;;;;;;;30.99;80.10;99984.19;5052333;28;19921;-70
2023/08/12 12:21:27;;;;;;;;;;;;;;;31.11;78.62;99982.09;5052926;28;20019;-71